AREA preflight bulletin
Updated "live" 21 Oct 2018, 00:33

back to the map




METAR og TAF


KANGERLUSSUAQ
  AKTUEL BGSF 210020Z AUTO 07006KT 9999NDV BKN021/// OVC070/// M10/M13 Q1011=
  TAF 24 timer BGSF 202300Z 2100/2119 07008KT 9999 BKN060 TEMPO 2100/2103 6000 -SN BKN020 TEMPO 2103/2111 BKN035 BECMG 2111/2113 FEW060=

SISIMIUT
  AKTUEL BGSS 210020Z AUTO 08004KT 030V110 9999NDV NCD M07/M08 Q1010=
  TAF 9 timer BGSS 201341Z 2013/2017 VRB03KT 9999 -SHSN SCT015TCU TEMPO 2013/2017 0400 SHSN VV003 BECMG 2013/2015 12010KT=

MANIITSOQ
  AKTUEL BGMQ 210020Z AUTO 07010KT 9999NDV BKN029/// BKN220/// M07/M12 Q1011=

NUUK
  AKTUEL BGGH 202350Z AUTO 07015KT 9999NDV FEW140/// M08/M14 Q1010=
  TAF 9 timer BGGH 201859Z 2019/2020 CNL=

ILULISSAT
  AKTUEL BGJN 210020Z AUTO 12014KT 9999NDV BKN040/// OVC050/// M07/M14 Q1008=
  TAF 9 timer BGJN 201417Z 2015/2019 12017KT 9999 BKN045 TEMPO 2015/2019 DRSN BKN025=

AASIAAT
  AKTUEL BGAA 210020Z AUTO 16014KT 1100NDV -SHSN SCT011/// BKN031/// BKN240/// M05/M06 Q1007=
  TAF 9 timer BGAA 201700Z 2017/2018 CNL=


SIGMETS:

SONDRESTROM FIR
  SIGMET BGGL SIGMET 11 VALID 202215/210215 BGSF- BGGL NUUK FIR SEV TURB FCST AT 2215Z WI N5936 W04307 - N5952 W04509 - N6559 W04203 - N6531 W03847 - N5936 W04307 SFC/FL090 STNR NC=

SNOWTAM:

ICAO
BGSF (KANGERLUSSUAQ)

valid from:
1810201845

Notam_id:
0030

SNOWTAM 0030 A)BGSF B)10201845 C)09 F)4/4/4 H)5/5/5 N)A B C D/4/GOOD R)N E W HELIPAD/4/GOOD T)MEASURED FRICTION COEFFICIENTS 60/65/70 TAP, RUNWAY CONTAMINATION 100 PERCENT 1MM DRY SNOW


ICAO
BGSS (SISIMIUT)

valid from:
1810201319

Notam_id:
0030

SNOWTAM 0030 A)BGSS B)10201319 C)13 F)48/48/48 G)25/25/25 H)5/5/5 N)4/POOR R)4/POOR T)RWY CONTAMINATION 100 PERCENT 25MM DRY SNOW AND 10 PERCENT 2MM COMPACTED OR ROLLED SNOW MEASURED FRICTION COEFFICIENTS 40/40/40 WHITE PAINTED AREAS 25 TAP



NOTAM/SNOWTAM for operationel use has to be confirmed with the
nearest AIS Briefing Office prior to a flight.

ICAO
BGSF (KANGERLUSSUAQ)

FIR
BGGL

Notam_id:
BGA0541/18

valid from:
1810191025

E) APPROACH LIGHTS, PAPI LIGHTS AND RUNWAY EDGE LIGHTS ARE SET ON 10 PCT INTENSITY. 20 MINUTES PRIOR NOTICE REQUIRED TO CHANGE SETTING.

valid to:
1810312359




ICAO
BGSF (KANGERLUSSUAQ)

FIR
BGGL

Notam_id:
BGA0445/18

valid from:
1809131554

E) BGSF FBO E-MAIL ADDRESS: BGSF(AT)MIT.GL REF AIP GRL/AD 2 - BGSF, GEN 3.3 - 2 AND GEN 3.4 - 3.

valid to:
PERM




ICAO
BGSS (SISIMIUT)

FIR
BGGL

Notam_id:
BGB0698/18

valid from:
1810110000

E) TRIGGER NOTAM - PERM AIP AIRAC AMDT 09/18 WEF 11 OCT 2018. CHANGE TO TEL, E-MAIL, RESCUE AND FIRE FIGHTING SERVICE AND FAX WITHDRAWN.

valid to:
1810242359




ICAO
BGSS (SISIMIUT)

FIR
BGGL

Notam_id:
BGB0728/18

valid from:
1808311834

E) BGSS AFIS FREQ 118,100 MHZ NO COVERAGE IN SECTOR BETWEEN 280 MAG AND 110 MAG BELOW 7000FT.

valid to:
1810311800EST




ICAO
BGMQ (MANIITSOQ)

FIR
BGGL

Notam_id:
BGB0697/18

valid from:
1810110000

E) TRIGGER NOTAM - PERM AIP AIRAC AMDT 09/18 WEF 11 OCT 2018. CHANGE TO TEL AND E-MAIL.

valid to:
1810242359




ICAO
BGMQ (MANIITSOQ)

FIR
BGGL

Notam_id:
BGB0823/18

valid from:
1810191130

E) SEA RESCUE NOT AVAILABLE.

valid to:
1810221200




ICAO
BGMQ (MANIITSOQ)

FIR
BGGL

Notam_id:
BGB0618/18

valid from:
1807240705

E) CHANGES TO AD 2 BGMQ -1- ITEM 5 (GEOGRAPHICAL AND ADMINISTRATIVE DATA) TEL : +299 70 16 00 (MITTARFEQARFIIT) - 38 27 80 (MANIITSOQ LUFTHAVN) - 38 27 86 (AFIS) E-MAIL: BGMQ (AT) MIT.GL (AFIS

valid to:
PERM




ICAO
BGGH (NUUK)

FIR
BGGL

Notam_id:
BGB0786/18

valid from:
1810011932

E) BGGH AFIS FREQ 119.100 MHZ NO COVERAGE IN SECTOR BETWEEN 060 DEG MAG AND 210 DEG MAG BELOW FL100.

valid to:
1901311900EST


Replacing:
BGB0781/18

ICAO
BGGH (NUUK)

FIR
BGGL

Notam_id:
BGB0930/17

valid from:
1712181907

E) ERROR IN CHART FOR RNAV (GNSS) APPROACH RWY 23. WITH REF AIP GREENLAND AD 2-BGGH RNAV (GNSS) RWY 23-1. NEW OCA(H) LNAV/VNAV CLIMB 2.5 PERCENT CAT A TO READ 1310 (1029) INSTEAD OF 1230. NEW OCA(H) LNAV/VNAV CLIMB 2.5 PERCENT CAT B TO READ 1340 (1059) INSTEAD OF 1250. NEW OCA(H) LNAV/VNAV CLIMB 5.0 PERCENT CAT A TO READ 1300 (1019) INSTEAD OF 1070. NEW OCA(H) LNAV/VNAV CLIMB 5.0 PERCENT CAT B TO READ 1320 (1039) INSTEAD OF 1110. NEW OCA(H) LNAV CLIMB 5.0 PERCENT CAT A TO READ 1150 (869) IN-STEAD OF 1130. NEW OCA(H) LNAV CLIMB 5.0 PERCENT CAT B TO READ 1240 (959) INSTEAD OF 1230.

valid to:
PERM




ICAO
BGGH (NUUK)

FIR
BGGL

Notam_id:
BGB0808/18

valid from:
1810111130

E) CRANE RAISED AT PSN 641124N0514021W (AIR GREENLAND HANGAR AREA) TOP 82FT AGL

valid to:
1812201900EST




ICAO
BGJN (ILULISSAT)

FIR
BGGL

Notam_id:
BGB0696/18

valid from:
1810110000

E) TRIGGER NOTAM - PERM AIP AIRAC AMDT 09/18 WEF 11 OCT 2018. FAX WITHDRAWN.

valid to:
1810242359




ICAO
BGJN (ILULISSAT)

FIR
BGGL

Notam_id:
BGB0750/18

valid from:
1809110956

E) RWY 07/25 EVERY SECOND APCH LIGHT OUT OF SERVICE.

valid to:
1810312000




ICAO
BGJN (ILULISSAT)

FIR
BGGL

Notam_id:
BGB0807/18

valid from:
1810110929

E) SEA RESCUE OUT OF SERVICE

valid to:
1810251900




ICAO
BGJN (ILULISSAT)

FIR
BGGL

Notam_id:
BGB0605/18

valid from:
1807201213

E) ILULISSAT FAX +299 94 40 08 TERMINATED AND NO LONGER IN USE.

valid to:
PERM




ICAO
BGGL (SONDRESTROM FIR)

FIR
BGGL

Notam_id:
BGA0473/18

valid from:
1810010452

E) CHECKLIST YEAR=2017 0269 YEAR=2018 0199 0383 0442 0443 0444 0445 0451 0468 0469 0470 0471 0472 LATEST PUBLICATIONS AIP AIRAC AMDT IFR 009/2018 EFFECTIVE DATE 11 OCT 18 AIP AMDT IFR 003/2018 EFFECTIVE DATE 15 MAR 18 AIP SUP IFR 006/2018 EFFECTIVE DATE 18 JUN 18 AIC IFR A003/2018 EFFECTIVE DATE 29 AUG 18

valid to:
1811010452EST


Replacing:
BGA0405/18

ICAO
BGGL (SONDRESTROM FIR)

FIR
BGGL

Notam_id:
BGB0782/18

valid from:
1810010453

E) CHECKLIST YEAR=2017 0740 0930 YEAR=2018 0605 0618 0622 0631 0659 0696 0697 0698 0699 0704 0728 0750 0759 0760 0772 0773 0776 0777 0781 LATEST PUBLICATIONS AIP AIRAC AMDT IFR 009/2018 EFFECTIVE DATE 11 OCT 18 AIP AMDT IFR 003/2018 EFFECTIVE DATE 15 MAR 18 AIP SUP IFR 006/2018 EFFECTIVE DATE 18 JUN 18 AIC IFR A003/2018 EFFECTIVE DATE 29 AUG 18

valid to:
1811010453EST


Replacing:
BGB0731/18

ICAO
BGGL (SONDRESTROM FIR)

FIR
BGGL

Notam_id:
BGC0063/18

valid from:
1810010453

E) CHECKLIST YEAR=2018 0058 0059 0060 LATEST PUBLICATIONS AIP AIRAC AMDT IFR 009/2018 EFFECTIVE DATE 11 OCT 18 AIP AMDT IFR 003/2018 EFFECTIVE DATE 15 MAR 18 AIP SUP IFR 006/2018 EFFECTIVE DATE 18 JUN 18 AIC IFR A003/2018 EFFECTIVE DATE 29 AUG 18

valid to:
1811010453EST


Replacing:
BGC0062/18

ICAO
BGGL (SONDRESTROM FIR)

FIR
BGGL

Notam_id:
BGA0486/18

valid from:
1811080000

E) AIP AIRAC AMDT EFFECTIVE DATE 08 NOV 2018: NIL.

valid to:
1811212359




ICAO
BGGL (SONDRESTROM FIR)

FIR
BGGL

Notam_id:
BGA0199/18

valid from:
1805310935

E) GREENLAND AND ADJACENT WATERS ARE CONSIDERED HOSTILE AREAS BY THE CIVIL AVIATION AUTHORITY (TBST). THREE MAJOR REASONS CONTRIBUTE TO DEFINING THE AREA AS HOSTILE: A SAFE FORCED LANDING CANNOT BE ACCOMPLISHED BECAUSE THE SURFACE IS INADEQUATE. THE HELICOPTER OCCUPANTS CANNOT BE ADEQUATELY PROTECTED FROM THE ELEMENTS. SEARCH AND RESCUE RESPONSE/CAPABILITY ARE NOT PROVIDED CONSISTENT WITH ANTICIPATED EXPOSURE.

valid to:
PERM




ICAO
BGAA (AASIAAT)

FIR
BGGL

Notam_id:
BGA0269/17

valid from:
1706081136

D) DAILY 1100-1115 2300-2315


E) ASCENT OR WEATHER BALLOON TAKES PLACE TWICE A DAY 1100-1115 AND 2300-2315. POSN 684201N0525105W LOCATED WEST OF THE AIRPORT AT A DISTANCE OF APPROX 3 KM. THE BALLOON CAN RISE TO A HEIGHT OF UP TO 35 KM. REF AIP GREENLAND AD 2 - BGAA - 4. F) SFC G) FL999

valid to:
PERM





Copyright Naviair   2003-2016